sensor_id;sensor_type;location;lat;lon;timestamp;temperature;humidity
10316;DHT22;5203;48.976;8.306;2024-02-28T00:00:38;6.60;96.00
10316;DHT22;5203;48.976;8.306;2024-02-28T00:03:04;6.60;96.40
10316;DHT22;5203;48.976;8.306;2024-02-28T00:05:30;6.60;96.10
10316;DHT22;5203;48.976;8.306;2024-02-28T00:07:56;6.60;95.70
10316;DHT22;5203;48.976;8.306;2024-02-28T00:10:21;6.60;95.80
10316;DHT22;5203;48.976;8.306;2024-02-28T00:12:47;6.50;95.80
10316;DHT22;5203;48.976;8.306;2024-02-28T00:15:13;6.50;95.70
10316;DHT22;5203;48.976;8.306;2024-02-28T00:17:39;6.60;95.30
10316;DHT22;5203;48.976;8.306;2024-02-28T00:20:07;6.50;95.40
10316;DHT22;5203;48.976;8.306;2024-02-28T00:22:33;6.50;95.30
10316;DHT22;5203;48.976;8.306;2024-02-28T00:24:58;6.50;95.20
10316;DHT22;5203;48.976;8.306;2024-02-28T00:27:26;6.50;95.30
10316;DHT22;5203;48.976;8.306;2024-02-28T00:29:52;6.50;95.20
10316;DHT22;5203;48.976;8.306;2024-02-28T00:32:17;6.50;95.30
10316;DHT22;5203;48.976;8.306;2024-02-28T00:34:43;6.50;95.10
10316;DHT22;5203;48.976;8.306;2024-02-28T00:37:09;6.50;95.00
10316;DHT22;5203;48.976;8.306;2024-02-28T00:39:35;6.50;94.50
10316;DHT22;5203;48.976;8.306;2024-02-28T00:42:00;6.50;94.90
10316;DHT22;5203;48.976;8.306;2024-02-28T00:44:26;6.40;94.70
10316;DHT22;5203;48.976;8.306;2024-02-28T00:46:52;6.40;94.80
10316;DHT22;5203;48.976;8.306;2024-02-28T00:49:17;6.40;94.60
10316;DHT22;5203;48.976;8.306;2024-02-28T00:51:43;6.40;94.30
10316;DHT22;5203;48.976;8.306;2024-02-28T00:54:08;6.40;94.20
10316;DHT22;5203;48.976;8.306;2024-02-28T00:56:34;6.30;94.30
10316;DHT22;5203;48.976;8.306;2024-02-28T00:59:00;6.30;94.50
10316;DHT22;5203;48.976;8.306;2024-02-28T01:01:25;6.30;94.60
10316;DHT22;5203;48.976;8.306;2024-02-28T01:03:51;6.30;94.80
10316;DHT22;5203;48.976;8.306;2024-02-28T01:06:17;6.30;94.60
10316;DHT22;5203;48.976;8.306;2024-02-28T01:08:42;6.30;94.60
10316;DHT22;5203;48.976;8.306;2024-02-28T01:11:08;6.30;94.60
10316;DHT22;5203;48.976;8.306;2024-02-28T01:13:34;6.20;94.50
10316;DHT22;5203;48.976;8.306;2024-02-28T01:15:59;6.20;95.60
10316;DHT22;5203;48.976;8.306;2024-02-28T01:18:25;6.20;95.00
10316;DHT22;5203;48.976;8.306;2024-02-28T01:20:51;6.30;95.20
10316;DHT22;5203;48.976;8.306;2024-02-28T01:23:19;6.30;95.30
10316;DHT22;5203;48.976;8.306;2024-02-28T01:25:45;6.30;95.40
10316;DHT22;5203;48.976;8.306;2024-02-28T01:28:10;6.20;95.40
10316;DHT22;5203;48.976;8.306;2024-02-28T01:30:36;6.20;95.60
10316;DHT22;5203;48.976;8.306;2024-02-28T01:33:02;6.20;95.60
10316;DHT22;5203;48.976;8.306;2024-02-28T01:35:27;6.20;95.70
10316;DHT22;5203;48.976;8.306;2024-02-28T01:37:53;6.10;95.70
10316;DHT22;5203;48.976;8.306;2024-02-28T01:40:19;6.10;95.60
10316;DHT22;5203;48.976;8.306;2024-02-28T01:42:44;6.10;96.00
10316;DHT22;5203;48.976;8.306;2024-02-28T01:45:13;6.10;95.90
10316;DHT22;5203;48.976;8.306;2024-02-28T01:47:43;6.00;96.50
10316;DHT22;5203;48.976;8.306;2024-02-28T01:50:09;5.90;96.90
10316;DHT22;5203;48.976;8.306;2024-02-28T01:52:37;5.90;97.00
10316;DHT22;5203;48.976;8.306;2024-02-28T01:55:04;5.80;97.30
10316;DHT22;5203;48.976;8.306;2024-02-28T01:57:31;5.80;97.40
10316;DHT22;5203;48.976;8.306;2024-02-28T01:59:58;5.70;97.30
10316;DHT22;5203;48.976;8.306;2024-02-28T02:02:23;5.70;97.40
10316;DHT22;5203;48.976;8.306;2024-02-28T02:04:49;5.70;98.00
10316;DHT22;5203;48.976;8.306;2024-02-28T02:07:18;5.60;97.20
10316;DHT22;5203;48.976;8.306;2024-02-28T02:09:44;5.60;97.50
10316;DHT22;5203;48.976;8.306;2024-02-28T02:12:11;5.60;97.50
10316;DHT22;5203;48.976;8.306;2024-02-28T02:14:36;5.60;97.70
10316;DHT22;5203;48.976;8.306;2024-02-28T02:17:02;5.50;98.00
10316;DHT22;5203;48.976;8.306;2024-02-28T02:19:28;5.50;98.20
10316;DHT22;5203;48.976;8.306;2024-02-28T02:21:54;5.60;98.60
10316;DHT22;5203;48.976;8.306;2024-02-28T02:24:22;5.50;98.90
10316;DHT22;5203;48.976;8.306;2024-02-28T02:26:47;5.60;99.30
10316;DHT22;5203;48.976;8.306;2024-02-28T02:29:13;5.60;99.50
10316;DHT22;5203;48.976;8.306;2024-02-28T02:31:39;5.60;99.30
10316;DHT22;5203;48.976;8.306;2024-02-28T02:34:06;5.50;99.90
10316;DHT22;5203;48.976;8.306;2024-02-28T02:36:31;5.40;99.90
10316;DHT22;5203;48.976;8.306;2024-02-28T02:38:58;5.40;99.90
10316;DHT22;5203;48.976;8.306;2024-02-28T02:41:24;5.30;99.90
10316;DHT22;5203;48.976;8.306;2024-02-28T02:43:49;5.30;99.90
10316;DHT22;5203;48.976;8.306;2024-02-28T02:46:15;5.30;99.90
10316;DHT22;5203;48.976;8.306;2024-02-28T02:48:40;5.30;99.90
10316;DHT22;5203;48.976;8.306;2024-02-28T02:51:06;5.40;99.90
10316;DHT22;5203;48.976;8.306;2024-02-28T02:53:32;5.40;99.90
10316;DHT22;5203;48.976;8.306;2024-02-28T02:55:57;5.40;99.90
10316;DHT22;5203;48.976;8.306;2024-02-28T02:58:23;5.40;99.90
10316;DHT22;5203;48.976;8.306;2024-02-28T03:00:48;5.40;99.90
10316;DHT22;5203;48.976;8.306;2024-02-28T03:03:15;5.50;99.90
10316;DHT22;5203;48.976;8.306;2024-02-28T03:05:40;5.50;99.90
10316;DHT22;5203;48.976;8.306;2024-02-28T03:08:06;5.50;99.90
10316;DHT22;5203;48.976;8.306;2024-02-28T03:10:32;5.60;99.90
10316;DHT22;5203;48.976;8.306;2024-02-28T03:12:57;5.60;99.90
10316;DHT22;5203;48.976;8.306;2024-02-28T03:15:23;5.60;99.90
10316;DHT22;5203;48.976;8.306;2024-02-28T03:17:48;5.60;99.90
10316;DHT22;5203;48.976;8.306;2024-02-28T03:20:14;5.60;99.90
10316;DHT22;5203;48.976;8.306;2024-02-28T03:22:40;5.60;99.90
10316;DHT22;5203;48.976;8.306;2024-02-28T03:25:06;5.60;99.90
10316;DHT22;5203;48.976;8.306;2024-02-28T03:27:32;5.60;99.90
10316;DHT22;5203;48.976;8.306;2024-02-28T03:29:58;5.60;99.90
10316;DHT22;5203;48.976;8.306;2024-02-28T03:32:23;5.60;99.90
10316;DHT22;5203;48.976;8.306;2024-02-28T03:34:49;5.60;99.90
10316;DHT22;5203;48.976;8.306;2024-02-28T03:37:15;5.60;99.90
10316;DHT22;5203;48.976;8.306;2024-02-28T03:39:40;5.60;99.90
10316;DHT22;5203;48.976;8.306;2024-02-28T03:42:06;5.60;99.90
10316;DHT22;5203;48.976;8.306;2024-02-28T03:44:32;5.60;99.90
10316;DHT22;5203;48.976;8.306;2024-02-28T03:46:58;5.60;99.90
10316;DHT22;5203;48.976;8.306;2024-02-28T03:49:24;5.50;99.90
10316;DHT22;5203;48.976;8.306;2024-02-28T03:51:50;5.50;99.90
10316;DHT22;5203;48.976;8.306;2024-02-28T03:54:15;5.40;99.90
10316;DHT22;5203;48.976;8.306;2024-02-28T03:56:41;5.40;99.90
10316;DHT22;5203;48.976;8.306;2024-02-28T03:59:07;5.30;99.90
10316;DHT22;5203;48.976;8.306;2024-02-28T04:01:32;5.30;99.90
10316;DHT22;5203;48.976;8.306;2024-02-28T04:03:58;5.30;99.90
10316;DHT22;5203;48.976;8.306;2024-02-28T04:06:24;5.30;99.90
10316;DHT22;5203;48.976;8.306;2024-02-28T04:08:50;5.40;99.90
10316;DHT22;5203;48.976;8.306;2024-02-28T04:11:15;5.40;99.90
10316;DHT22;5203;48.976;8.306;2024-02-28T04:13:41;5.40;99.90
10316;DHT22;5203;48.976;8.306;2024-02-28T04:16:08;5.20;99.90
10316;DHT22;5203;48.976;8.306;2024-02-28T04:18:34;5.20;99.90
10316;DHT22;5203;48.976;8.306;2024-02-28T04:20:59;5.10;99.90
10316;DHT22;5203;48.976;8.306;2024-02-28T04:23:25;5.10;99.90
10316;DHT22;5203;48.976;8.306;2024-02-28T04:25:51;5.10;99.90
10316;DHT22;5203;48.976;8.306;2024-02-28T04:28:16;5.10;99.90
10316;DHT22;5203;48.976;8.306;2024-02-28T04:30:42;5.00;99.90
10316;DHT22;5203;48.976;8.306;2024-02-28T04:33:08;5.10;99.90
10316;DHT22;5203;48.976;8.306;2024-02-28T04:35:33;5.10;99.90
10316;DHT22;5203;48.976;8.306;2024-02-28T04:37:59;5.10;99.90
10316;DHT22;5203;48.976;8.306;2024-02-28T04:40:25;5.20;99.90
10316;DHT22;5203;48.976;8.306;2024-02-28T04:42:50;5.20;99.90
10316;DHT22;5203;48.976;8.306;2024-02-28T04:45:16;5.20;99.90
10316;DHT22;5203;48.976;8.306;2024-02-28T04:47:42;5.20;99.90
10316;DHT22;5203;48.976;8.306;2024-02-28T04:50:09;5.10;99.90
10316;DHT22;5203;48.976;8.306;2024-02-28T04:52:34;5.20;99.90
10316;DHT22;5203;48.976;8.306;2024-02-28T04:55:00;5.20;99.90
10316;DHT22;5203;48.976;8.306;2024-02-28T04:57:27;5.10;99.90
10316;DHT22;5203;48.976;8.306;2024-02-28T04:59:52;5.10;99.90
10316;DHT22;5203;48.976;8.306;2024-02-28T05:02:19;5.10;99.90
10316;DHT22;5203;48.976;8.306;2024-02-28T05:04:46;5.10;99.90
10316;DHT22;5203;48.976;8.306;2024-02-28T05:07:12;5.10;99.90
10316;DHT22;5203;48.976;8.306;2024-02-28T05:09:38;5.00;99.90
10316;DHT22;5203;48.976;8.306;2024-02-28T05:12:04;5.00;99.90
10316;DHT22;5203;48.976;8.306;2024-02-28T05:14:29;5.00;99.90
10316;DHT22;5203;48.976;8.306;2024-02-28T05:16:55;5.00;99.90
10316;DHT22;5203;48.976;8.306;2024-02-28T05:19:21;5.00;99.90
10316;DHT22;5203;48.976;8.306;2024-02-28T05:21:46;4.90;99.90
10316;DHT22;5203;48.976;8.306;2024-02-28T05:24:13;4.90;99.90
10316;DHT22;5203;48.976;8.306;2024-02-28T05:26:39;4.80;99.90
10316;DHT22;5203;48.976;8.306;2024-02-28T05:29:05;4.70;99.90
10316;DHT22;5203;48.976;8.306;2024-02-28T05:31:31;4.70;99.90
10316;DHT22;5203;48.976;8.306;2024-02-28T05:33:58;4.60;99.90
10316;DHT22;5203;48.976;8.306;2024-02-28T05:36:25;4.50;99.90
10316;DHT22;5203;48.976;8.306;2024-02-28T05:38:53;4.40;99.90
10316;DHT22;5203;48.976;8.306;2024-02-28T05:41:19;4.30;99.90
10316;DHT22;5203;48.976;8.306;2024-02-28T05:43:45;4.20;99.90
10316;DHT22;5203;48.976;8.306;2024-02-28T05:46:11;4.20;99.90
10316;DHT22;5203;48.976;8.306;2024-02-28T05:48:37;4.20;99.90
10316;DHT22;5203;48.976;8.306;2024-02-28T05:51:03;4.20;99.90
10316;DHT22;5203;48.976;8.306;2024-02-28T05:53:29;4.10;99.90
10316;DHT22;5203;48.976;8.306;2024-02-28T05:56:01;4.10;99.90
10316;DHT22;5203;48.976;8.306;2024-02-28T05:58:27;4.10;99.90
10316;DHT22;5203;48.976;8.306;2024-02-28T06:00:52;4.00;99.90
10316;DHT22;5203;48.976;8.306;2024-02-28T06:03:18;4.00;99.90
10316;DHT22;5203;48.976;8.306;2024-02-28T06:05:44;4.00;99.90
10316;DHT22;5203;48.976;8.306;2024-02-28T06:08:09;4.00;99.90
10316;DHT22;5203;48.976;8.306;2024-02-28T06:10:35;3.90;99.90
10316;DHT22;5203;48.976;8.306;2024-02-28T06:13:02;3.90;99.90
10316;DHT22;5203;48.976;8.306;2024-02-28T06:15:27;4.00;99.90
10316;DHT22;5203;48.976;8.306;2024-02-28T06:17:53;4.00;99.90
10316;DHT22;5203;48.976;8.306;2024-02-28T06:20:21;4.00;99.90
10316;DHT22;5203;48.976;8.306;2024-02-28T06:22:46;3.90;99.90
10316;DHT22;5203;48.976;8.306;2024-02-28T06:25:12;3.90;99.90
10316;DHT22;5203;48.976;8.306;2024-02-28T06:27:45;4.00;99.90
10316;DHT22;5203;48.976;8.306;2024-02-28T06:30:11;4.00;99.90
10316;DHT22;5203;48.976;8.306;2024-02-28T06:32:38;3.90;99.90
10316;DHT22;5203;48.976;8.306;2024-02-28T06:35:04;3.90;99.90
10316;DHT22;5203;48.976;8.306;2024-02-28T06:37:30;3.80;99.90
10316;DHT22;5203;48.976;8.306;2024-02-28T06:39:55;3.80;99.90
10316;DHT22;5203;48.976;8.306;2024-02-28T06:42:21;3.90;99.90
10316;DHT22;5203;48.976;8.306;2024-02-28T06:44:47;3.80;99.90
10316;DHT22;5203;48.976;8.306;2024-02-28T06:47:14;3.90;99.90
10316;DHT22;5203;48.976;8.306;2024-02-28T06:49:39;3.80;99.90
10316;DHT22;5203;48.976;8.306;2024-02-28T06:52:05;3.80;99.90
10316;DHT22;5203;48.976;8.306;2024-02-28T06:54:31;3.80;99.90
10316;DHT22;5203;48.976;8.306;2024-02-28T06:56:57;3.80;99.90
10316;DHT22;5203;48.976;8.306;2024-02-28T06:59:23;3.90;99.90
10316;DHT22;5203;48.976;8.306;2024-02-28T07:01:49;3.80;99.90
10316;DHT22;5203;48.976;8.306;2024-02-28T07:04:14;3.70;99.90
10316;DHT22;5203;48.976;8.306;2024-02-28T07:06:40;3.70;99.90
10316;DHT22;5203;48.976;8.306;2024-02-28T07:09:08;3.70;99.90
10316;DHT22;5203;48.976;8.306;2024-02-28T07:11:34;3.60;99.90
10316;DHT22;5203;48.976;8.306;2024-02-28T07:14:00;3.60;99.90
10316;DHT22;5203;48.976;8.306;2024-02-28T07:16:29;3.70;99.90
10316;DHT22;5203;48.976;8.306;2024-02-28T07:18:54;3.80;99.90
10316;DHT22;5203;48.976;8.306;2024-02-28T07:21:20;3.80;99.90
10316;DHT22;5203;48.976;8.306;2024-02-28T07:23:46;4.00;99.90
10316;DHT22;5203;48.976;8.306;2024-02-28T07:26:17;4.00;99.90
10316;DHT22;5203;48.976;8.306;2024-02-28T07:28:43;4.10;99.90
10316;DHT22;5203;48.976;8.306;2024-02-28T07:31:18;4.30;99.90
10316;DHT22;5203;48.976;8.306;2024-02-28T07:33:44;4.30;99.90
10316;DHT22;5203;48.976;8.306;2024-02-28T07:36:10;4.30;99.90
10316;DHT22;5203;48.976;8.306;2024-02-28T07:38:41;4.40;99.90
10316;DHT22;5203;48.976;8.306;2024-02-28T07:41:07;4.40;99.90
10316;DHT22;5203;48.976;8.306;2024-02-28T07:43:33;4.50;99.90
10316;DHT22;5203;48.976;8.306;2024-02-28T07:46:06;4.50;99.90
10316;DHT22;5203;48.976;8.306;2024-02-28T07:48:32;4.60;99.90
10316;DHT22;5203;48.976;8.306;2024-02-28T07:50:58;4.60;99.90
10316;DHT22;5203;48.976;8.306;2024-02-28T07:53:23;4.70;99.90
10316;DHT22;5203;48.976;8.306;2024-02-28T07:55:49;4.70;99.90
10316;DHT22;5203;48.976;8.306;2024-02-28T07:58:15;4.80;99.90
10316;DHT22;5203;48.976;8.306;2024-02-28T08:00:42;4.80;99.90
10316;DHT22;5203;48.976;8.306;2024-02-28T08:03:09;4.80;99.90
10316;DHT22;5203;48.976;8.306;2024-02-28T08:05:35;4.90;99.90
10316;DHT22;5203;48.976;8.306;2024-02-28T08:08:05;5.00;99.90
10316;DHT22;5203;48.976;8.306;2024-02-28T08:10:31;5.00;99.90
10316;DHT22;5203;48.976;8.306;2024-02-28T08:12:57;5.10;99.90
10316;DHT22;5203;48.976;8.306;2024-02-28T08:15:23;5.20;99.90
10316;DHT22;5203;48.976;8.306;2024-02-28T08:17:49;5.40;99.90
10316;DHT22;5203;48.976;8.306;2024-02-28T08:20:14;5.40;99.90
10316;DHT22;5203;48.976;8.306;2024-02-28T08:22:40;5.50;98.30
10316;DHT22;5203;48.976;8.306;2024-02-28T08:25:06;5.50;99.00
10316;DHT22;5203;48.976;8.306;2024-02-28T08:27:33;5.50;99.30
10316;DHT22;5203;48.976;8.306;2024-02-28T08:30:00;5.60;98.60
10316;DHT22;5203;48.976;8.306;2024-02-28T08:32:26;5.60;97.70
10316;DHT22;5203;48.976;8.306;2024-02-28T08:34:51;5.60;97.90
10316;DHT22;5203;48.976;8.306;2024-02-28T08:37:19;5.70;97.10
10316;DHT22;5203;48.976;8.306;2024-02-28T08:39:45;5.60;96.40
10316;DHT22;5203;48.976;8.306;2024-02-28T08:42:11;5.70;97.20
10316;DHT22;5203;48.976;8.306;2024-02-28T08:44:37;5.80;96.30
10316;DHT22;5203;48.976;8.306;2024-02-28T08:47:03;5.80;96.10
10316;DHT22;5203;48.976;8.306;2024-02-28T08:49:30;6.00;95.80
10316;DHT22;5203;48.976;8.306;2024-02-28T08:51:56;5.90;94.70
10316;DHT22;5203;48.976;8.306;2024-02-28T08:54:22;6.00;95.70
10316;DHT22;5203;48.976;8.306;2024-02-28T08:56:48;6.00;95.00
10316;DHT22;5203;48.976;8.306;2024-02-28T08:59:14;5.90;93.70
10316;DHT22;5203;48.976;8.306;2024-02-28T09:01:39;6.00;94.80
10316;DHT22;5203;48.976;8.306;2024-02-28T09:04:06;6.10;94.30
10316;DHT22;5203;48.976;8.306;2024-02-28T09:06:32;6.30;93.20
10316;DHT22;5203;48.976;8.306;2024-02-28T09:08:58;6.40;93.10
10316;DHT22;5203;48.976;8.306;2024-02-28T09:11:24;6.40;91.90
10316;DHT22;5203;48.976;8.306;2024-02-28T09:13:59;6.40;92.70
10316;DHT22;5203;48.976;8.306;2024-02-28T09:16:25;6.40;92.60
10316;DHT22;5203;48.976;8.306;2024-02-28T09:18:56;6.50;92.50
10316;DHT22;5203;48.976;8.306;2024-02-28T09:27:46;6.50;92.50
10316;DHT22;5203;48.976;8.306;2024-02-28T09:30:11;6.60;92.30
10316;DHT22;5203;48.976;8.306;2024-02-28T09:32:37;6.60;91.70
10316;DHT22;5203;48.976;8.306;2024-02-28T09:35:03;6.70;91.40
10316;DHT22;5203;48.976;8.306;2024-02-28T09:37:30;6.70;91.00
10316;DHT22;5203;48.976;8.306;2024-02-28T09:39:57;6.90;90.50
10316;DHT22;5203;48.976;8.306;2024-02-28T09:42:23;6.90;90.60
10316;DHT22;5203;48.976;8.306;2024-02-28T09:44:49;7.10;89.30
10316;DHT22;5203;48.976;8.306;2024-02-28T09:47:14;7.30;87.80
10316;DHT22;5203;48.976;8.306;2024-02-28T09:49:42;7.40;88.80
10316;DHT22;5203;48.976;8.306;2024-02-28T09:52:08;7.50;88.30
10316;DHT22;5203;48.976;8.306;2024-02-28T09:54:34;7.60;86.70
10316;DHT22;5203;48.976;8.306;2024-02-28T09:57:00;7.80;87.20
10316;DHT22;5203;48.976;8.306;2024-02-28T09:59:26;7.90;86.10
10316;DHT22;5203;48.976;8.306;2024-02-28T10:01:57;8.00;84.50
10316;DHT22;5203;48.976;8.306;2024-02-28T10:04:26;7.90;85.40
10316;DHT22;5203;48.976;8.306;2024-02-28T10:06:56;8.10;85.10
10316;DHT22;5203;48.976;8.306;2024-02-28T10:09:22;8.40;83.20
10316;DHT22;5203;48.976;8.306;2024-02-28T10:11:48;8.30;82.80
10316;DHT22;5203;48.976;8.306;2024-02-28T10:14:20;8.40;83.20
10316;DHT22;5203;48.976;8.306;2024-02-28T10:16:46;8.60;81.20
10316;DHT22;5203;48.976;8.306;2024-02-28T10:19:12;8.60;82.40
10316;DHT22;5203;48.976;8.306;2024-02-28T10:21:38;8.80;82.20
10316;DHT22;5203;48.976;8.306;2024-02-28T10:24:05;8.80;81.80
10316;DHT22;5203;48.976;8.306;2024-02-28T10:26:30;8.80;80.90
10316;DHT22;5203;48.976;8.306;2024-02-28T10:29:00;8.80;81.30
10316;DHT22;5203;48.976;8.306;2024-02-28T10:31:26;8.80;81.70
10316;DHT22;5203;48.976;8.306;2024-02-28T10:34:16;9.20;80.10
10316;DHT22;5203;48.976;8.306;2024-02-28T10:37:23;9.30;78.60
10316;DHT22;5203;48.976;8.306;2024-02-28T10:49:43;10.30;73.60
10316;DHT22;5203;48.976;8.306;2024-02-28T10:55:55;10.40;72.70
10316;DHT22;5203;48.976;8.306;2024-02-28T11:02:27;10.50;71.10
10316;DHT22;5203;48.976;8.306;2024-02-28T11:08:33;10.70;70.10
10316;DHT22;5203;48.976;8.306;2024-02-28T11:11:04;10.90;67.70
10316;DHT22;5203;48.976;8.306;2024-02-28T11:13:30;10.80;69.00
10316;DHT22;5203;48.976;8.306;2024-02-28T11:16:09;10.90;68.30
10316;DHT22;5203;48.976;8.306;2024-02-28T11:18:48;11.10;68.00
10316;DHT22;5203;48.976;8.306;2024-02-28T11:21:17;11.50;65.60
10316;DHT22;5203;48.976;8.306;2024-02-28T11:23:46;11.70;64.20
10316;DHT22;5203;48.976;8.306;2024-02-28T11:26:15;11.40;64.50
10316;DHT22;5203;48.976;8.306;2024-02-28T11:28:50;11.40;64.20
10316;DHT22;5203;48.976;8.306;2024-02-28T11:31:19;11.20;64.90
10316;DHT22;5203;48.976;8.306;2024-02-28T11:33:45;11.30;65.10
10316;DHT22;5203;48.976;8.306;2024-02-28T11:36:14;11.10;65.60
10316;DHT22;5203;48.976;8.306;2024-02-28T11:38:46;11.20;64.60
10316;DHT22;5203;48.976;8.306;2024-02-28T11:41:12;11.10;65.10
10316;DHT22;5203;48.976;8.306;2024-02-28T11:43:41;11.00;65.80
10316;DHT22;5203;48.976;8.306;2024-02-28T11:46:13;11.30;64.40
10316;DHT22;5203;48.976;8.306;2024-02-28T11:48:46;11.90;63.30
10316;DHT22;5203;48.976;8.306;2024-02-28T11:51:12;12.20;58.90
10316;DHT22;5203;48.976;8.306;2024-02-28T11:53:41;11.90;59.90
10316;DHT22;5203;48.976;8.306;2024-02-28T11:56:07;12.30;58.30
10316;DHT22;5203;48.976;8.306;2024-02-28T11:58:36;12.30;57.10
10316;DHT22;5203;48.976;8.306;2024-02-28T12:01:05;12.30;57.20
10316;DHT22;5203;48.976;8.306;2024-02-28T12:03:45;12.30;57.10
10316;DHT22;5203;48.976;8.306;2024-02-28T12:06:16;12.20;57.90
10316;DHT22;5203;48.976;8.306;2024-02-28T12:08:43;11.90;59.60
10316;DHT22;5203;48.976;8.306;2024-02-28T12:13:57;12.40;55.50
10316;DHT22;5203;48.976;8.306;2024-02-28T12:16:32;12.40;55.00
10316;DHT22;5203;48.976;8.306;2024-02-28T12:26:00;13.20;54.60
10316;DHT22;5203;48.976;8.306;2024-02-28T12:28:37;13.40;50.70
10316;DHT22;5203;48.976;8.306;2024-02-28T12:31:07;13.40;49.90
10316;DHT22;5203;48.976;8.306;2024-02-28T12:33:38;13.90;48.50
10316;DHT22;5203;48.976;8.306;2024-02-28T12:36:10;14.30;48.20
10316;DHT22;5203;48.976;8.306;2024-02-28T12:38:57;14.80;46.20
10316;DHT22;5203;48.976;8.306;2024-02-28T12:41:27;14.90;46.60
10316;DHT22;5203;48.976;8.306;2024-02-28T12:43:54;15.00;45.20
10316;DHT22;5203;48.976;8.306;2024-02-28T12:46:19;15.20;45.40
10316;DHT22;5203;48.976;8.306;2024-02-28T12:48:45;14.60;45.70
10316;DHT22;5203;48.976;8.306;2024-02-28T12:54:08;14.40;46.10
10316;DHT22;5203;48.976;8.306;2024-02-28T12:56:35;14.80;45.40
10316;DHT22;5203;48.976;8.306;2024-02-28T12:59:02;14.90;45.80
10316;DHT22;5203;48.976;8.306;2024-02-28T13:01:28;15.40;44.80
10316;DHT22;5203;48.976;8.306;2024-02-28T13:03:54;15.70;44.10
10316;DHT22;5203;48.976;8.306;2024-02-28T13:06:20;15.70;43.70
10316;DHT22;5203;48.976;8.306;2024-02-28T13:08:50;15.90;43.00
10316;DHT22;5203;48.976;8.306;2024-02-28T13:11:22;15.80;43.10
10316;DHT22;5203;48.976;8.306;2024-02-28T13:13:48;15.80;43.50
10316;DHT22;5203;48.976;8.306;2024-02-28T13:16:15;15.80;42.30
10316;DHT22;5203;48.976;8.306;2024-02-28T13:18:41;15.70;42.50
10316;DHT22;5203;48.976;8.306;2024-02-28T13:21:07;15.80;42.20
10316;DHT22;5203;48.976;8.306;2024-02-28T13:23:33;16.30;41.90
10316;DHT22;5203;48.976;8.306;2024-02-28T13:25:59;16.70;39.70
10316;DHT22;5203;48.976;8.306;2024-02-28T13:28:26;16.80;40.50
10316;DHT22;5203;48.976;8.306;2024-02-28T13:30:58;16.80;39.90
10316;DHT22;5203;48.976;8.306;2024-02-28T13:33:24;16.80;39.20
10316;DHT22;5203;48.976;8.306;2024-02-28T13:35:50;16.60;39.90
10316;DHT22;5203;48.976;8.306;2024-02-28T13:38:18;16.50;40.50
10316;DHT22;5203;48.976;8.306;2024-02-28T13:40:47;16.20;40.70
10316;DHT22;5203;48.976;8.306;2024-02-28T13:43:13;16.40;41.30
10316;DHT22;5203;48.976;8.306;2024-02-28T13:45:45;16.50;40.80
10316;DHT22;5203;48.976;8.306;2024-02-28T13:48:16;17.20;39.70
10316;DHT22;5203;48.976;8.306;2024-02-28T13:50:43;17.50;38.90
10316;DHT22;5203;48.976;8.306;2024-02-28T13:53:09;17.20;38.50
10316;DHT22;5203;48.976;8.306;2024-02-28T13:55:35;17.60;37.70
10316;DHT22;5203;48.976;8.306;2024-02-28T13:58:00;17.60;37.30
10316;DHT22;5203;48.976;8.306;2024-02-28T14:00:26;17.00;38.80
10316;DHT22;5203;48.976;8.306;2024-02-28T14:02:52;16.70;39.10
10316;DHT22;5203;48.976;8.306;2024-02-28T14:05:17;17.20;40.40
10316;DHT22;5203;48.976;8.306;2024-02-28T14:07:43;17.20;38.70
10316;DHT22;5203;48.976;8.306;2024-02-28T14:10:09;17.00;38.10
10316;DHT22;5203;48.976;8.306;2024-02-28T14:12:36;17.30;38.20
10316;DHT22;5203;48.976;8.306;2024-02-28T14:15:03;17.60;38.20
10316;DHT22;5203;48.976;8.306;2024-02-28T14:17:30;18.10;36.70
10316;DHT22;5203;48.976;8.306;2024-02-28T14:19:56;17.50;38.00
10316;DHT22;5203;48.976;8.306;2024-02-28T14:22:21;17.50;37.30
10316;DHT22;5203;48.976;8.306;2024-02-28T14:24:47;18.10;36.10
10316;DHT22;5203;48.976;8.306;2024-02-28T14:27:13;18.20;36.20
10316;DHT22;5203;48.976;8.306;2024-02-28T14:29:39;18.40;35.10
10316;DHT22;5203;48.976;8.306;2024-02-28T14:32:05;18.50;35.40
10316;DHT22;5203;48.976;8.306;2024-02-28T14:34:32;18.10;35.20
10316;DHT22;5203;48.976;8.306;2024-02-28T14:36:58;17.90;35.80
10316;DHT22;5203;48.976;8.306;2024-02-28T14:39:23;17.60;36.40
10316;DHT22;5203;48.976;8.306;2024-02-28T14:41:49;18.30;35.40
10316;DHT22;5203;48.976;8.306;2024-02-28T14:44:15;18.20;35.30
10316;DHT22;5203;48.976;8.306;2024-02-28T14:46:42;18.20;35.20
10316;DHT22;5203;48.976;8.306;2024-02-28T14:49:09;17.50;36.10
10316;DHT22;5203;48.976;8.306;2024-02-28T14:51:34;16.80;37.80
10316;DHT22;5203;48.976;8.306;2024-02-28T14:54:00;17.30;37.50
10316;DHT22;5203;48.976;8.306;2024-02-28T14:56:26;17.30;36.20
10316;DHT22;5203;48.976;8.306;2024-02-28T14:58:54;17.10;37.90
10316;DHT22;5203;48.976;8.306;2024-02-28T15:01:21;16.90;37.60
10316;DHT22;5203;48.976;8.306;2024-02-28T15:03:46;16.60;38.00
10316;DHT22;5203;48.976;8.306;2024-02-28T15:06:13;16.90;38.00
10316;DHT22;5203;48.976;8.306;2024-02-28T15:08:39;17.20;36.90
10316;DHT22;5203;48.976;8.306;2024-02-28T15:11:05;16.70;37.50
10316;DHT22;5203;48.976;8.306;2024-02-28T15:13:31;17.20;36.40
10316;DHT22;5203;48.976;8.306;2024-02-28T15:15:56;17.30;36.70
10316;DHT22;5203;48.976;8.306;2024-02-28T15:18:22;17.20;36.90
10316;DHT22;5203;48.976;8.306;2024-02-28T15:20:48;17.10;37.20
10316;DHT22;5203;48.976;8.306;2024-02-28T15:23:14;17.00;37.50
10316;DHT22;5203;48.976;8.306;2024-02-28T15:25:40;16.50;37.80
10316;DHT22;5203;48.976;8.306;2024-02-28T15:28:05;16.10;39.20
10316;DHT22;5203;48.976;8.306;2024-02-28T15:30:31;15.90;40.20
10316;DHT22;5203;48.976;8.306;2024-02-28T15:32:57;15.60;41.30
10316;DHT22;5203;48.976;8.306;2024-02-28T15:35:23;15.40;41.20
10316;DHT22;5203;48.976;8.306;2024-02-28T15:37:49;15.50;41.40
10316;DHT22;5203;48.976;8.306;2024-02-28T15:40:14;16.00;39.80
10316;DHT22;5203;48.976;8.306;2024-02-28T15:42:41;15.90;39.70
10316;DHT22;5203;48.976;8.306;2024-02-28T15:45:07;15.90;38.30
10316;DHT22;5203;48.976;8.306;2024-02-28T15:47:33;15.60;39.30
10316;DHT22;5203;48.976;8.306;2024-02-28T15:50:01;15.30;40.10
10316;DHT22;5203;48.976;8.306;2024-02-28T15:52:28;15.00;41.80
10316;DHT22;5203;48.976;8.306;2024-02-28T15:54:53;15.00;41.80
10316;DHT22;5203;48.976;8.306;2024-02-28T15:57:19;15.00;42.40
10316;DHT22;5203;48.976;8.306;2024-02-28T15:59:44;14.70;43.60
10316;DHT22;5203;48.976;8.306;2024-02-28T16:02:10;14.80;42.40
10316;DHT22;5203;48.976;8.306;2024-02-28T16:04:37;14.60;42.80
10316;DHT22;5203;48.976;8.306;2024-02-28T16:07:03;14.30;44.50
10316;DHT22;5203;48.976;8.306;2024-02-28T16:09:29;14.10;44.80
10316;DHT22;5203;48.976;8.306;2024-02-28T16:11:54;14.10;45.20
10316;DHT22;5203;48.976;8.306;2024-02-28T16:14:20;13.70;46.10
10316;DHT22;5203;48.976;8.306;2024-02-28T16:16:46;13.50;46.20
10316;DHT22;5203;48.976;8.306;2024-02-28T16:19:12;13.40;46.90
10316;DHT22;5203;48.976;8.306;2024-02-28T16:21:37;13.40;46.40
10316;DHT22;5203;48.976;8.306;2024-02-28T16:24:03;13.30;46.00
10316;DHT22;5203;48.976;8.306;2024-02-28T16:26:29;13.30;46.60
10316;DHT22;5203;48.976;8.306;2024-02-28T16:28:54;13.20;47.20
10316;DHT22;5203;48.976;8.306;2024-02-28T16:31:22;13.10;47.50
10316;DHT22;5203;48.976;8.306;2024-02-28T16:33:48;12.80;49.80